createdAt,value
2018-09-20T00:56:19.043Z,31.9
2018-09-20T00:57:09.256Z,32
2018-09-20T00:57:58.743Z,31.9
2018-09-20T00:58:49.355Z,31.9
2018-09-20T00:59:38.867Z,31.9
2018-09-20T01:00:29.933Z,32
2018-09-20T01:01:19.279Z,32
2018-09-20T01:02:09.623Z,31.9
2018-09-20T01:02:59.460Z,31.9
2018-09-20T01:03:49.158Z,31.9
2018-09-20T01:04:39.537Z,31.9
2018-09-20T01:05:29.040Z,31.9
2018-09-20T01:06:20.203Z,31.9
2018-09-20T01:07:09.472Z,31.9
2018-09-20T01:08:00.100Z,31.9
2018-09-20T01:08:49.549Z,31.9
2018-09-20T01:09:39.882Z,31.9
2018-09-20T01:10:29.969Z,31.9
2018-09-20T01:11:19.727Z,31.9
2018-09-20T01:12:10.384Z,31.9
2018-09-20T01:13:00.434Z,31.9
2018-09-20T01:13:49.912Z,31.9
2018-09-20T01:14:40.572Z,31.9
2018-09-20T01:15:30.301Z,31.9
2018-09-20T01:16:20.329Z,31.9
2018-09-20T01:17:10.739Z,31.9
2018-09-20T01:18:00.779Z,31.9
2018-09-20T01:18:50.044Z,31.9
2018-09-20T01:19:40.619Z,31.9
2018-09-20T01:20:31.007Z,31.8
2018-09-20T01:21:21.354Z,31.9
2018-09-20T01:22:10.776Z,31.9
2018-09-20T01:23:00.869Z,31.8
2018-09-20T01:23:50.676Z,31.8
2018-09-20T01:24:41.423Z,31.8
2018-09-20T01:25:31.099Z,31.8
2018-09-20T01:26:20.931Z,31.8
2018-09-20T01:27:11.462Z,31.8
2018-09-20T01:28:01.398Z,31.8
2018-09-20T01:28:51.649Z,31.8
2018-09-20T01:29:41.669Z,31.8
2018-09-20T01:30:31.452Z,31.8
2018-09-20T01:31:22.369Z,31.8
2018-09-20T01:32:12.162Z,31.8
2018-09-20T01:33:01.356Z,31.8
2018-09-20T01:33:52.274Z,31.8
2018-09-20T01:34:42.045Z,31.8
2018-09-20T01:35:33.019Z,31.8
2018-09-20T01:36:21.921Z,31.8
2018-09-20T01:37:11.952Z,31.8
2018-09-20T01:38:01.768Z,31.8
2018-09-20T01:38:51.774Z,31.7
2018-09-20T01:39:41.890Z,31.8
2018-09-20T01:40:32.218Z,31.8
2018-09-20T01:41:22.037Z,31.8
2018-09-20T01:42:12.062Z,31.8
2018-09-20T01:43:02.140Z,31.8
2018-09-20T01:43:52.500Z,31.8
2018-09-20T01:44:42.531Z,31.8
2018-09-20T01:45:32.295Z,31.8
2018-09-20T01:46:22.650Z,31.7
2018-09-20T01:47:12.675Z,31.8
2018-09-20T01:48:01.919Z,31.7
2018-09-20T01:48:52.532Z,31.7
2018-09-20T01:49:42.890Z,31.7
2018-09-20T01:50:32.393Z,31.7
2018-09-20T01:51:23.291Z,31.7
2018-09-20T01:52:12.979Z,31.7
2018-09-20T01:53:03.149Z,31.7
2018-09-20T01:53:53.201Z,31.7
2018-09-20T01:54:43.034Z,31.7
2018-09-20T01:55:33.304Z,31.7
2018-09-20T01:56:23.371Z,31.7
2018-09-20T01:57:14.217Z,31.6
2018-09-20T01:58:03.768Z,31.6
2018-09-20T01:58:53.859Z,31.7
2018-09-20T01:59:43.374Z,31.6
2018-09-20T02:00:33.974Z,31.6
2018-09-20T02:01:23.536Z,31.6
2018-09-20T02:02:13.562Z,31.6
2018-09-20T02:03:03.926Z,31.6
2018-09-20T02:03:54.259Z,31.6
2018-09-20T02:04:44.016Z,31.6
2018-09-20T02:05:33.794Z,31.6
2018-09-20T02:06:24.151Z,31.6
2018-09-20T02:07:14.466Z,31.6
2018-09-20T02:08:04.243Z,31.6
2018-09-20T02:08:54.338Z,31.6
2018-09-20T02:09:44.653Z,31.6
2018-09-20T02:10:34.726Z,31.6
2018-09-20T02:11:24.215Z,31.6
2018-09-20T02:12:14.566Z,31.6
2018-09-20T02:13:04.061Z,31.6
2018-09-20T02:13:54.680Z,31.6
2018-09-20T02:14:44.238Z,31.6
2018-09-20T02:15:35.098Z,31.6
2018-09-20T02:16:24.290Z,31.6
2018-09-20T02:17:15.236Z,31.6
2018-09-20T02:18:04.993Z,31.6
2018-09-20T02:18:54.513Z,31.6
2018-09-20T02:19:45.672Z,31.6
2018-09-20T02:20:35.260Z,31.6
2018-09-20T02:21:25.230Z,31.5
2018-09-20T02:22:15.075Z,31.6
2018-09-20T02:23:05.365Z,31.5
2018-09-20T02:23:55.193Z,31.5
2018-09-20T02:24:45.841Z,31.5
2018-09-20T02:25:35.603Z,31.6
2018-09-20T02:26:26.165Z,31.5
2018-09-20T02:27:15.705Z,31.5
2018-09-20T02:28:05.828Z,31.5
2018-09-20T02:28:55.815Z,31.5
2018-09-20T02:29:46.135Z,31.5
2018-09-20T02:30:35.691Z,31.5
2018-09-20T02:31:25.967Z,31.5
2018-09-20T02:32:16.083Z,31.5
2018-09-20T02:33:06.989Z,31.5
2018-09-20T02:33:56.001Z,31.5
2018-09-20T02:34:46.299Z,31.5
2018-09-20T02:35:36.372Z,31.4
2018-09-20T02:36:26.392Z,31.4
2018-09-20T02:37:16.459Z,31.4
2018-09-20T02:38:06.785Z,31.4
2018-09-20T02:38:56.855Z,31.4
2018-09-20T02:39:46.717Z,31.4
2018-09-20T02:40:36.188Z,31.4
2018-09-20T02:41:26.747Z,31.4
2018-09-20T02:42:16.830Z,31.4
2018-09-20T02:43:06.309Z,31.4
2018-09-20T02:43:57.261Z,31.4
2018-09-20T02:44:46.479Z,31.4
2018-09-20T02:45:37.054Z,31.4
2018-09-20T02:46:27.422Z,31.4
2018-09-20T02:47:17.317Z,31.4
2018-09-20T02:48:07.614Z,31.4
2018-09-20T02:48:57.306Z,31.4
2018-09-20T02:49:47.382Z,31.4
2018-09-20T02:50:37.472Z,31.4
2018-09-20T02:51:27.528Z,31.4
2018-09-20T02:52:16.435Z,31.4
2018-09-20T02:53:07.975Z,31.4
2018-09-20T02:53:57.978Z,31.4
2018-09-20T02:54:47.460Z,31.4
2018-09-20T02:55:37.904Z,31.4
2018-09-20T02:56:27.866Z,31.4
2018-09-20T02:57:17.913Z,31.4
2018-09-20T02:58:08.082Z,31.4
2018-09-20T02:58:59.179Z,31.4
2018-09-20T02:59:48.398Z,31.4
2018-09-20T03:00:37.915Z,31.3
2018-09-20T03:01:27.963Z,31.3
2018-09-20T03:02:18.553Z,31.4
2018-09-20T03:03:08.660Z,31.4
2018-09-20T03:03:58.740Z,31.3
2018-09-20T03:04:47.379Z,31.4
2018-09-20T03:05:38.246Z,31.3
2018-09-20T03:06:28.954Z,31.3
2018-09-20T03:07:18.955Z,31.3
2018-09-20T03:08:09.293Z,31.3
2018-09-20T03:08:58.199Z,31.3
2018-09-20T03:09:49.143Z,31.3
2018-09-20T03:10:38.632Z,31.3
2018-09-20T03:11:29.304Z,31.3
2018-09-20T03:12:18.770Z,31.3
2018-09-20T03:13:11.132Z,31.3
2018-09-20T03:13:59.207Z,31.3
2018-09-20T03:14:49.525Z,31.3
2018-09-20T03:15:39.047Z,31.3
2018-09-20T03:16:29.649Z,31.3
2018-09-20T03:17:19.777Z,31.3
2018-09-20T03:18:09.202Z,31.3
2018-09-20T03:19:00.160Z,31.3
2018-09-20T03:19:49.927Z,31.3
2018-09-20T03:20:40.239Z,31.3
2018-09-20T03:21:29.502Z,31.3
2018-09-20T03:22:19.491Z,31.2
2018-09-20T03:23:09.894Z,31.2
2018-09-20T03:23:59.979Z,31.3
2018-09-20T03:24:50.036Z,31.3
2018-09-20T03:25:40.384Z,31.3
2018-09-20T03:26:30.111Z,31.2
2018-09-20T03:27:19.886Z,31.2
2018-09-20T03:28:10.603Z,31.2
2018-09-20T03:28:59.729Z,31.2
2018-09-20T03:29:50.654Z,31.2
2018-09-20T03:30:42.980Z,31.2
2018-09-20T03:31:30.804Z,31.2
2018-09-20T03:32:20.973Z,31.2
2018-09-20T03:33:10.938Z,31.2
2018-09-20T03:34:00.546Z,31.2
2018-09-20T03:34:51.120Z,31.2
2018-09-20T03:35:41.536Z,31.2
2018-09-20T03:36:30.838Z,31.2
2018-09-20T03:37:21.263Z,31.2
2018-09-20T03:38:10.444Z,31.2
2018-09-20T03:39:01.381Z,31.2
2018-09-20T03:39:50.858Z,31.1
2018-09-20T03:40:41.195Z,31.2
2018-09-20T03:41:30.966Z,31.1
2018-09-20T03:42:21.286Z,31.1
2018-09-20T03:43:11.088Z,31.1
2018-09-20T03:44:00.868Z,31.1
2018-09-20T03:44:51.481Z,31.1
2018-09-20T03:45:41.546Z,31.1
2018-09-20T03:46:31.620Z,31.1
2018-09-20T03:47:21.976Z,31.1
2018-09-20T03:48:11.733Z,31.1
2018-09-20T03:49:00.935Z,31.1
2018-09-20T03:49:52.167Z,31.1
2018-09-20T03:50:41.644Z,31.1
2018-09-20T03:51:32.252Z,31.1
2018-09-20T03:52:22.378Z,31.1
2018-09-20T03:53:11.834Z,31.1
2018-09-20T03:54:01.590Z,31.1
2018-09-20T03:54:52.525Z,31.1
2018-09-20T03:55:42.629Z,31.1
2018-09-20T03:56:33.202Z,31.1
2018-09-20T03:57:22.467Z,31.1
2018-09-20T03:58:12.474Z,31.1
2018-09-20T03:59:01.944Z,31.1
2018-09-20T03:59:52.864Z,31.1
2018-09-20T04:00:42.679Z,31.1
2018-09-20T04:01:33.092Z,31.1
2018-09-20T04:02:23.304Z,31.1
2018-09-20T04:03:13.127Z,31.1
2018-09-20T04:04:03.214Z,31.1
2018-09-20T04:04:52.675Z,31.1
2018-09-20T04:05:43.046Z,31.1
2018-09-20T04:06:33.424Z,31.1
2018-09-20T04:07:23.391Z,31
2018-09-20T04:08:13.504Z,31
2018-09-20T04:09:03.002Z,31
2018-09-20T04:09:54.418Z,31
2018-09-20T04:10:43.403Z,31
2018-09-20T04:11:33.179Z,31
2018-09-20T04:12:23.013Z,31
2018-09-20T04:13:14.151Z,31
2018-09-20T04:14:03.655Z,31
2018-09-20T04:14:53.791Z,31
2018-09-20T04:15:43.832Z,31
2018-09-20T04:16:34.094Z,31
2018-09-20T04:17:24.211Z,31
2018-09-20T04:18:13.664Z,31
2018-09-20T04:19:03.997Z,30.9
2018-09-20T04:19:53.544Z,31
2018-09-20T04:20:44.439Z,31
2018-09-20T04:21:34.229Z,30.9
2018-09-20T04:22:23.180Z,31
2018-09-20T04:23:14.572Z,30.9
2018-09-20T04:24:04.406Z,31
2018-09-20T04:24:54.753Z,30.9
2018-09-20T04:25:44.810Z,30.9
2018-09-20T04:26:34.324Z,30.9
2018-09-20T04:27:24.911Z,30.9
2018-09-20T04:28:14.419Z,30.9
2018-09-20T04:29:04.759Z,30.9
2018-09-20T04:29:55.191Z,30.9
2018-09-20T04:30:45.196Z,30.9
2018-09-20T04:31:35.532Z,30.9
2018-09-20T04:32:25.324Z,30.9
2018-09-20T04:33:15.690Z,30.9
2018-09-20T04:34:04.646Z,30.9
2018-09-20T04:34:55.230Z,30.9
2018-09-20T04:35:45.708Z,30.9
2018-09-20T04:36:34.806Z,30.9
2018-09-20T04:37:25.148Z,30.9
2018-09-20T04:38:16.050Z,30.9
2018-09-20T04:39:05.540Z,30.9
2018-09-20T04:39:55.595Z,30.9
2018-09-20T04:40:45.341Z,30.9
2018-09-20T04:41:36.045Z,30.9
2018-09-20T04:42:26.023Z,30.9
2018-09-20T04:43:16.101Z,30.9
2018-09-20T04:44:05.578Z,30.9
2018-09-20T04:44:55.945Z,30.9
2018-09-20T04:45:46.378Z,30.8
2018-09-20T04:46:35.551Z,30.9
2018-09-20T04:47:26.453Z,30.8
2018-09-20T04:48:16.483Z,30.9
2018-09-20T04:49:06.283Z,30.8
2018-09-20T04:49:56.601Z,30.8
2018-09-20T04:50:46.357Z,30.8
2018-09-20T04:51:36.757Z,30.8
2018-09-20T04:52:26.761Z,30.8
2018-09-20T04:53:17.796Z,30.8
2018-09-20T04:54:06.991Z,30.8
2018-09-20T04:54:56.409Z,30.8
2018-09-20T04:55:46.484Z,30.8
2018-09-20T04:56:37.078Z,30.8
2018-09-20T04:57:26.613Z,30.8
2018-09-20T04:58:17.052Z,30.8
2018-09-20T04:59:07.270Z,30.8
2018-09-20T04:59:57.841Z,30.8
2018-09-20T05:00:47.718Z,30.8
2018-09-20T05:01:37.199Z,30.8
2018-09-20T05:02:26.932Z,30.8
2018-09-20T05:03:18.111Z,30.8
2018-09-20T05:04:07.103Z,30.8
2018-09-20T05:04:57.453Z,30.8
2018-09-20T05:05:47.235Z,30.8
2018-09-20T05:06:37.833Z,30.8
2018-09-20T05:07:27.319Z,30.8
2018-09-20T05:25:23.681Z,30.6
2018-09-20T05:26:13.734Z,30.6
2018-09-20T05:27:03.728Z,30.6
2018-09-20T05:27:53.528Z,30.6
2018-09-20T05:28:43.294Z,30.6
2018-09-20T05:29:33.735Z,30.6
2018-09-20T05:30:23.598Z,30.6
2018-09-20T05:31:13.770Z,30.6
2018-09-20T05:32:03.578Z,30.6
2018-09-20T05:32:53.675Z,30.6
2018-09-20T05:33:43.660Z,30.6
2018-09-20T05:34:33.776Z,30.6
2018-09-20T05:35:25.009Z,30.6
2018-09-20T05:36:13.857Z,30.6
2018-09-20T05:37:04.577Z,30.6
2018-09-20T05:37:54.313Z,30.6
2018-09-20T05:38:43.539Z,30.6
2018-09-20T05:39:34.720Z,30.6
2018-09-20T05:40:23.636Z,30.6
2018-09-20T05:41:14.290Z,30.6
2018-09-20T05:42:04.297Z,30.6
2018-09-20T05:42:54.104Z,30.6
2018-09-20T05:43:45.105Z,30.6
2018-09-20T05:44:35.015Z,30.6
2018-09-20T05:45:24.555Z,30.6
2018-09-20T05:46:15.335Z,30.6
2018-09-20T05:47:04.747Z,30.6
2018-09-20T05:47:55.017Z,30.6
2018-09-20T05:48:45.389Z,30.6
2018-09-20T05:49:34.891Z,30.6
2018-09-20T05:50:25.484Z,30.6
2018-09-20T05:51:15.653Z,30.6
2018-09-20T05:52:05.639Z,30.6
2018-09-20T05:52:55.404Z,30.6
2018-09-20T05:53:45.473Z,30.6
2018-09-20T05:54:36.630Z,30.6
2018-09-20T05:55:26.125Z,30.6
2018-09-20T05:56:16.024Z,30.6
2018-09-20T05:57:05.994Z,30.6
2018-09-20T05:57:56.130Z,30.6
2018-09-20T05:58:46.182Z,30.6
2018-09-20T05:59:35.906Z,30.6
2018-09-20T06:00:26.034Z,30.6
2018-09-20T06:01:16.033Z,30.6
2018-09-20T06:02:05.766Z,30.6
2018-09-20T06:02:56.471Z,30.6
2018-09-20T06:03:46.469Z,30.6
2018-09-20T06:04:36.329Z,30.5
2018-09-20T06:05:26.379Z,30.6
2018-09-20T06:06:16.449Z,30.5
2018-09-20T06:07:06.480Z,30.5
2018-09-20T06:07:56.843Z,30.5
2018-09-20T06:08:46.928Z,30.6
2018-09-20T06:09:36.638Z,30.5
2018-09-20T06:10:27.273Z,30.5
2018-09-20T06:11:16.823Z,30.5
2018-09-20T06:12:07.175Z,31.8
2018-09-20T06:12:56.636Z,39.5
2018-09-20T06:13:46.995Z,40.7
2018-09-20T06:14:37.335Z,43.7
2018-09-20T06:15:27.088Z,45.5
2018-09-20T06:16:17.732Z,45.7
2018-09-20T06:17:07.256Z,45.2
2018-09-20T06:17:57.561Z,44.8
2018-09-20T06:18:47.348Z,44.3
2018-09-20T06:19:37.375Z,44
2018-09-20T06:20:27.456Z,43.6
2018-09-20T06:21:16.925Z,43.3
2018-09-20T06:22:07.347Z,43
2018-09-20T06:22:57.385Z,42.6
2018-09-20T06:23:47.686Z,42.3
2018-09-20T06:24:38.095Z,42
2018-09-20T06:25:28.211Z,41.7
2018-09-20T06:26:18.174Z,41.4
2018-09-20T06:27:07.998Z,41.1
2018-09-20T06:27:58.308Z,40.8
2018-09-20T06:28:48.101Z,40.6
2018-09-20T06:29:37.687Z,40.4
2018-09-20T06:30:27.725Z,40.1
2018-09-20T06:31:18.331Z,39.9
2018-09-20T06:32:07.822Z,39.8
2018-09-20T06:32:58.465Z,42.8
2018-09-20T06:33:48.754Z,44.8
2018-09-20T06:34:38.006Z,46.2
2018-09-20T06:35:28.898Z,47.8
2018-09-20T06:36:17.820Z,48.3
2018-09-20T06:37:09.015Z,48.1
2018-09-20T06:37:59.080Z,47.7
2018-09-20T06:38:48.804Z,47.3
2018-09-20T06:39:38.646Z,47.1
2018-09-20T06:40:29.045Z,47
2018-09-20T06:41:19.044Z,46.8
2018-09-20T06:42:08.651Z,46.5
2018-09-20T06:42:59.136Z,46.1
2018-09-20T06:43:49.216Z,45.6
2018-09-20T06:44:39.266Z,45
2018-09-20T06:45:28.174Z,44.3
2018-09-20T06:46:19.686Z,43.8
2018-09-20T06:47:09.171Z,43.3
2018-09-20T06:47:59.298Z,42.8
2018-09-20T06:48:49.954Z,42.4
2018-09-20T06:49:40.018Z,42.1
2018-09-20T06:50:30.227Z,41.7
2018-09-20T06:51:20.336Z,41.4
2018-09-20T06:52:10.187Z,41.4
2018-09-20T06:53:00.006Z,41.3
2018-09-20T06:53:49.990Z,41.3
2018-09-20T06:54:39.706Z,41.3
2018-09-20T06:55:30.433Z,41.3
2018-09-20T06:56:20.215Z,41.4
2018-09-20T06:57:10.215Z,41.5
2018-09-20T06:58:00.575Z,41.6
2018-09-20T06:58:50.395Z,41.8
2018-09-20T06:59:40.693Z,41.9
2018-09-20T07:00:30.143Z,42
2018-09-20T07:01:20.498Z,42.2
2018-09-20T07:02:10.655Z,42.3
2018-09-20T07:03:01.763Z,42.5
2018-09-20T07:03:50.194Z,42.6
2018-09-20T07:04:39.931Z,42.8
2018-09-20T07:05:31.175Z,42.9
2018-09-20T07:06:20.695Z,43.1
2018-09-20T07:07:11.253Z,43.3
2018-09-20T07:08:00.835Z,43.4
2018-09-20T07:08:51.395Z,43.6
2018-09-20T07:09:41.413Z,43.8
2018-09-20T07:10:31.240Z,43.9
2018-09-20T07:11:21.554Z,44.1
2018-09-20T07:12:11.730Z,44.3
2018-09-20T07:13:01.414Z,44.4
2018-09-20T07:13:52.151Z,44.6
2018-09-20T07:14:41.247Z,44.8
2018-09-20T07:15:31.130Z,44.9
2018-09-20T07:16:21.450Z,45
2018-09-20T07:17:12.045Z,45.2
2018-09-20T07:18:02.188Z,45.4
2018-09-20T07:18:52.201Z,45.6
2018-09-20T07:19:41.411Z,45.7
2018-09-20T07:20:32.539Z,45.8
2018-09-20T07:21:22.397Z,45.9
2018-09-20T07:22:11.831Z,46.1
2018-09-20T07:23:01.865Z,46.3
2018-09-20T07:23:52.502Z,46.4
2018-09-20T07:24:42.345Z,46.5
2018-09-20T07:25:32.818Z,46.7
2018-09-20T07:26:22.121Z,46.8
2018-09-20T07:27:12.839Z,47
2018-09-20T07:28:02.567Z,47.1
2018-09-20T07:28:52.886Z,47.1
2018-09-20T07:29:43.007Z,47.1
2018-09-20T07:30:32.994Z,46.6
2018-09-20T07:31:22.606Z,46.3
2018-09-20T07:32:12.529Z,46.1
2018-09-20T07:33:02.921Z,46.2
2018-09-20T07:33:52.922Z,46.4
2018-09-20T07:34:43.018Z,46.5
2018-09-20T07:35:33.378Z,46.7
2018-09-20T07:36:23.425Z,46.8
2018-09-20T07:37:13.489Z,46.9
2018-09-20T07:38:03.025Z,47.1
2018-09-20T07:38:53.043Z,47.3
2018-09-20T07:39:43.330Z,47.3
2018-09-20T07:40:33.505Z,47.1
2018-09-20T07:41:23.523Z,46.9
2018-09-20T07:42:13.863Z,46.8
2018-09-20T07:43:03.887Z,46.6
2018-09-20T07:43:53.713Z,46.8
2018-09-20T07:44:44.038Z,46.9
2018-09-20T07:45:33.553Z,47.1
2018-09-20T07:46:23.893Z,47.3
2018-09-20T07:47:14.308Z,47.5
2018-09-20T07:48:04.318Z,47.6
2018-09-20T07:48:54.063Z,47.8
2018-09-20T07:49:44.225Z,47.9
2018-09-20T07:50:34.480Z,48.1
2018-09-20T07:51:24.223Z,48.3
2018-09-20T07:52:14.598Z,48.4
2018-09-20T07:53:04.115Z,48.6
2018-09-20T07:53:55.683Z,48.8
2018-09-20T07:54:44.579Z,48.9
2018-09-20T07:55:34.598Z,49.1
2018-09-20T07:56:24.964Z,49.2
2018-09-20T07:57:15.075Z,49.4
2018-09-20T07:58:04.742Z,49.5
2018-09-20T07:58:54.509Z,49.7
2018-09-20T07:59:45.459Z,49.8
2018-09-20T08:00:34.474Z,50
2018-09-20T08:01:24.577Z,50.1
2018-09-20T08:02:14.797Z,50.3
2018-09-20T08:03:05.155Z,50.4
2018-09-20T08:03:56.401Z,50.6
2018-09-20T08:04:46.326Z,50.8
2018-09-20T08:05:36.373Z,50.9
2018-09-20T08:06:25.681Z,51
2018-09-20T08:07:16.798Z,51.2
2018-09-20T08:08:05.874Z,51.3
2018-09-20T08:08:55.603Z,51.4
2018-09-20T08:09:45.101Z,51.6
2018-09-20T08:10:35.944Z,51.7
2018-09-20T08:11:26.054Z,51.9
2018-09-20T08:12:15.859Z,52
2018-09-20T08:13:06.949Z,52.1
2018-09-20T08:13:56.218Z,52.3
2018-09-20T08:15:35.804Z,52.5
2018-09-20T08:16:25.878Z,52.6
2018-09-20T08:17:16.473Z,52.8
2018-09-20T08:18:06.225Z,52.9
2018-09-20T08:18:57.040Z,53
2018-09-20T08:19:46.141Z,53.1
2018-09-20T08:20:36.235Z,53.2
2018-09-20T08:21:27.306Z,53.3
2018-09-20T08:22:16.301Z,53.4
2018-09-20T08:23:06.353Z,53.6
2018-09-20T08:23:57.226Z,53.7
2018-09-20T08:24:46.819Z,53.8
2018-09-20T08:25:37.176Z,53.9
2018-09-20T08:26:26.308Z,54.1
2018-09-20T08:27:17.020Z,54.1
2018-09-20T08:28:07.335Z,54.3
2018-09-20T08:28:57.452Z,54.4
2018-09-20T08:29:47.192Z,54.5
2018-09-20T08:30:37.192Z,54.6
2018-09-20T08:31:27.562Z,54.7
2018-09-20T08:32:17.674Z,54.8
2018-09-20T08:33:07.157Z,54.9
2018-09-20T08:33:57.702Z,55.1
2018-09-20T08:34:47.545Z,55.1
2018-09-20T08:35:37.893Z,55.3
2018-09-20T08:36:27.804Z,55.4
2018-09-20T08:37:17.055Z,55.4
2018-09-20T08:38:07.805Z,55.6
2018-09-20T08:38:57.329Z,55.7
2018-09-20T08:39:47.609Z,55.8
2018-09-20T08:40:37.973Z,55.9
2018-09-20T08:41:28.301Z,56
2018-09-20T08:42:18.342Z,56.1
2018-09-20T08:43:07.888Z,56.2
2018-09-20T08:43:58.041Z,56.3
2018-09-20T08:44:48.351Z,56.4
2018-09-20T08:45:37.854Z,56.5
2018-09-20T08:46:27.828Z,56.7
2018-09-20T08:47:18.746Z,56.8
2018-09-20T08:48:09.625Z,56.8
2018-09-20T08:48:58.609Z,56.9
2018-09-20T08:49:48.715Z,57.1
2018-09-20T08:50:38.526Z,57.1
2018-09-20T08:51:28.859Z,57.3
2018-09-20T08:52:18.701Z,57.3
2018-09-20T08:53:08.373Z,57.5
2018-09-20T08:53:59.135Z,57.6
2018-09-20T08:54:49.621Z,57.7
2018-09-20T08:55:39.131Z,57.8
2018-09-20T08:56:29.535Z,57.9
2018-09-20T08:57:20.763Z,58
2018-09-20T08:58:09.346Z,58.1
2018-09-20T08:58:59.373Z,58.2
2018-09-20T08:59:49.448Z,58.3
2018-09-20T09:00:38.435Z,58.4
2018-09-20T09:01:29.812Z,58.5
2018-09-20T09:03:09.645Z,58.7
2018-09-20T09:03:59.438Z,58.8
2018-09-20T09:04:49.810Z,58.9
2018-09-20T09:05:40.192Z,58.9
2018-09-20T09:06:30.225Z,59.1
2018-09-20T09:07:19.988Z,59.2
2018-09-20T09:08:10.367Z,59.3
2018-09-20T09:09:00.382Z,59.4
2018-09-20T09:09:50.540Z,59.4
2018-09-20T09:10:40.533Z,59.6
2018-09-20T09:11:30.020Z,59.6
2018-09-20T09:12:20.378Z,59.8
2018-09-20T09:13:10.434Z,59.8
2018-09-20T09:14:00.485Z,59.8
2018-09-20T09:14:50.567Z,59.9
2018-09-20T09:15:40.922Z,60
2018-09-20T09:16:31.041Z,60.1
2018-09-20T09:17:20.504Z,60.2
2018-09-20T09:18:11.349Z,60.3
2018-09-20T09:19:00.908Z,60.4
2018-09-20T09:19:51.311Z,60.4
2018-09-20T09:20:40.757Z,60.5
2018-09-20T09:21:30.499Z,60.6
2018-09-20T09:22:20.861Z,60.7
2018-09-20T09:23:11.231Z,60.8
2018-09-20T09:40:04.113Z,62
2018-09-20T09:40:53.383Z,62.1
2018-09-20T09:41:44.188Z,62.2
2018-09-20T09:42:33.473Z,62.3
2018-09-20T09:43:24.105Z,62.3
2018-09-20T09:44:13.955Z,62.4
2018-09-20T09:45:04.750Z,62.4
2018-09-20T09:45:54.250Z,62.5
2018-09-20T09:46:44.090Z,62.6
2018-09-20T09:47:33.847Z,62.7
2018-09-20T09:48:24.494Z,62.8
2018-09-20T09:49:14.808Z,62.8
2018-09-20T09:50:04.573Z,62.9
2018-09-20T09:50:54.379Z,62.9
2018-09-20T09:51:44.427Z,63
2018-09-20T09:52:34.802Z,63.1
2018-09-20T09:53:24.897Z,63.1
2018-09-20T09:54:14.724Z,63.2
2018-09-20T09:55:04.711Z,63.3
2018-09-20T09:55:55.002Z,63.3
2018-09-20T09:56:45.125Z,63.4
2018-09-20T09:57:35.168Z,63.4
2018-09-20T09:58:25.239Z,63.4
2018-09-20T09:59:15.307Z,63.5
2018-09-20T10:00:05.419Z,63.6
2018-09-20T10:00:55.414Z,63.6
2018-09-20T10:01:44.919Z,63.8
2018-09-20T10:02:36.769Z,63.8
2018-09-20T10:03:25.349Z,63.9
2018-09-20T10:04:15.467Z,63.9
2018-09-20T10:05:05.456Z,64
2018-09-20T10:05:55.549Z,64.1
2018-09-20T10:06:45.305Z,64.1
2018-09-20T10:07:34.284Z,64.2
2018-09-20T10:08:26.003Z,64.2
2018-09-20T10:09:15.781Z,64.3
2018-09-20T10:10:05.968Z,64.3
2018-09-20T10:10:55.878Z,64.4
2018-09-20T10:11:45.971Z,64.4
2018-09-20T10:12:35.734Z,64.4
2018-09-20T10:13:27.433Z,64.5
2018-09-20T10:14:15.608Z,64.6
2018-09-20T10:15:05.192Z,64.6
2018-09-20T10:15:56.550Z,64.8
2018-09-20T10:16:46.392Z,64.8
2018-09-20T10:17:36.126Z,64.9
2018-09-20T10:18:26.198Z,64.9
2018-09-20T10:19:16.813Z,64.9
2018-09-20T10:20:07.669Z,65
2018-09-20T10:20:56.987Z,65.1
2018-09-20T10:21:46.785Z,65.1
2018-09-20T10:22:37.081Z,65.1
2018-09-20T10:23:26.865Z,65.2
2018-09-20T10:24:17.208Z,65.3
2018-09-20T10:25:07.296Z,65.3
2018-09-20T10:25:57.156Z,65.4
2018-09-20T10:26:47.173Z,65.4
2018-09-20T10:27:37.480Z,65.5
2018-09-20T10:28:27.554Z,65.6
2018-09-20T10:29:17.361Z,65.6
2018-09-20T10:30:07.374Z,65.6
2018-09-20T10:30:57.526Z,65.7
2018-09-20T10:31:47.210Z,65.8
2018-09-20T10:32:37.853Z,65.8
2018-09-20T10:33:27.629Z,65.8
2018-09-20T10:34:17.393Z,65.8
2018-09-20T10:35:07.263Z,65.9
2018-09-20T10:35:57.279Z,65.9
2018-09-20T10:36:48.153Z,66
2018-09-20T10:37:38.266Z,66.1
2018-09-20T10:38:28.055Z,66.1
2018-09-20T10:39:18.080Z,66.1
2018-09-20T10:40:08.143Z,66.2
2018-09-20T10:40:57.887Z,66.3
2018-09-20T10:41:47.974Z,66.3
2018-09-20T10:42:38.620Z,66.3
2018-09-20T10:43:28.388Z,66.4
2018-09-20T10:44:18.740Z,66.4
2018-09-20T10:45:08.835Z,66.5
2018-09-20T10:45:59.112Z,66.6
2018-09-20T10:46:48.407Z,66.6
2018-09-20T10:47:39.032Z,66.7
2018-09-20T10:48:28.753Z,66.7
2018-09-20T10:49:18.305Z,66.8
2018-09-20T10:50:08.618Z,66.8
2018-09-20T10:50:59.285Z,66.9
2018-09-20T10:51:49.620Z,66.9
2018-09-20T10:52:39.345Z,67
2018-09-20T10:53:29.455Z,67
2018-09-20T10:54:19.482Z,67.1
2018-09-20T10:55:09.254Z,67.1
2018-09-20T10:55:58.247Z,67.1
2018-09-20T10:56:49.732Z,67.2
2018-09-20T10:57:39.501Z,67.3
2018-09-20T10:58:29.522Z,67.3
2018-09-20T10:59:19.848Z,67.4
2018-09-20T11:00:09.959Z,67.4
2018-09-20T11:00:59.404Z,67.4
2018-09-20T11:01:49.818Z,67.4
2018-09-20T11:02:40.129Z,67.5
2018-09-20T11:03:31.282Z,67.6
2018-09-20T11:04:20.250Z,67.6
2018-09-20T11:05:10.319Z,67.6
2018-09-20T11:06:00.628Z,67.6
2018-09-20T11:06:50.155Z,67.7
2018-09-20T11:07:39.941Z,67.7
2018-09-20T11:08:30.589Z,67.8
2018-09-20T11:09:20.075Z,67.8
2018-09-20T11:10:10.451Z,67.8
2018-09-20T11:11:01.666Z,67.9
2018-09-20T11:11:50.851Z,67.9
2018-09-20T11:12:41.121Z,67.9
2018-09-20T11:13:30.395Z,68
2018-09-20T11:14:20.445Z,68
2018-09-20T11:15:10.783Z,68
2018-09-20T11:16:00.846Z,68.1
2018-09-20T11:16:50.988Z,68.1
2018-09-20T11:17:40.742Z,68.1
2018-09-20T11:18:31.574Z,68.1
2018-09-20T11:19:21.098Z,68.2
2018-09-20T11:20:10.737Z,68.2
2018-09-20T11:21:01.240Z,68.3
2018-09-20T11:21:51.628Z,68.3
2018-09-20T11:22:40.865Z,68.3
2018-09-20T11:23:31.699Z,68.3
2018-09-20T11:24:21.787Z,68.4
2018-09-20T11:25:11.846Z,68.4
2018-09-20T11:26:03.256Z,68.4
2018-09-20T11:26:51.692Z,68.4
2018-09-20T11:27:42.049Z,68.4
2018-09-20T11:28:32.084Z,68.4
2018-09-20T11:29:22.410Z,68.5
2018-09-20T11:30:11.925Z,68.6
2018-09-20T11:31:01.994Z,68.6
2018-09-20T11:31:52.369Z,68.6
2018-09-20T11:32:42.410Z,68.6
2018-09-20T11:33:32.471Z,68.6
2018-09-20T11:34:22.539Z,68.7
2018-09-20T11:35:12.596Z,68.8
2018-09-20T11:36:02.372Z,68.8
2018-09-20T11:36:52.494Z,68.8
2018-09-20T11:37:42.792Z,68.8
2018-09-20T11:38:32.824Z,68.9
2018-09-20T11:39:22.649Z,68.9
2018-09-20T11:40:12.191Z,68.9
2018-09-20T11:41:02.787Z,68.9
2018-09-20T11:41:53.163Z,68.9
2018-09-20T11:42:42.884Z,68.9
2018-09-20T11:43:33.676Z,68.9
2018-09-20T11:44:23.337Z,68.9
2018-09-20T11:45:13.184Z,68.9
2018-09-20T11:46:03.204Z,69
2018-09-20T11:46:53.548Z,69.1
2018-09-20T11:47:43.533Z,69.1
2018-09-20T11:48:32.998Z,69.1
2018-09-20T16:40:39.726Z,33.5
2018-09-20T16:41:30.060Z,33.4
2018-09-20T16:42:19.345Z,33.4
2018-09-20T16:43:08.858Z,33.4
2018-09-20T16:43:59.513Z,33.3
2018-09-20T16:44:49.448Z,33.3
2018-09-20T16:45:39.853Z,33.2
2018-09-20T16:46:29.855Z,33.1
2018-09-20T16:47:19.633Z,33.1
2018-09-20T16:48:10.300Z,33.1
2018-09-20T16:49:00.634Z,33.1
2018-09-20T16:49:50.130Z,33
2018-09-20T16:50:40.478Z,32.9
2018-09-20T16:51:30.517Z,32.9
2018-09-20T16:52:20.872Z,32.9
2018-09-20T16:53:11.708Z,32.8
2018-09-20T16:54:00.502Z,32.8
2018-09-20T16:54:50.804Z,32.8
2018-09-20T16:55:40.037Z,32.7
2018-09-20T16:56:30.652Z,32.7
2018-09-20T16:57:20.412Z,32.6
2018-09-20T16:58:10.742Z,32.6
2018-09-20T16:59:01.035Z,32.6
2018-09-20T16:59:50.879Z,32.6
2018-09-20T17:00:40.124Z,32.6
2018-09-20T17:01:31.014Z,32.5
2018-09-20T17:02:20.607Z,32.4
2018-09-20T17:03:11.412Z,32.4
2018-09-20T17:04:00.899Z,32.4
2018-09-20T17:04:50.960Z,32.4
2018-09-20T17:05:41.584Z,32.4
2018-09-20T17:06:31.173Z,32.3
2018-09-20T17:07:22.505Z,32.3
2018-09-20T17:08:11.219Z,32.3
2018-09-20T17:09:00.997Z,32.3
2018-09-20T17:09:51.924Z,32.3
2018-09-20T17:10:42.053Z,32.3
2018-09-20T17:11:31.569Z,32.3
2018-09-20T17:12:21.643Z,32.2
2018-09-20T17:13:11.350Z,32.1
2018-09-20T17:14:01.757Z,32.1
2018-09-20T17:14:53.668Z,32.1
2018-09-20T17:15:41.809Z,32.1
2018-09-20T17:16:32.416Z,32.1
2018-09-20T17:17:21.958Z,32.1
2018-09-20T17:18:12.571Z,32.1
2018-09-20T17:19:02.344Z,32
2018-09-20T17:19:53.392Z,32
2018-09-20T17:20:42.186Z,32
2018-09-20T17:21:32.820Z,32
2018-09-20T17:22:22.636Z,31.9
2018-09-20T17:23:12.381Z,31.9
2018-09-20T17:24:02.715Z,31.9
2018-09-20T17:24:52.753Z,31.9
2018-09-20T17:25:43.148Z,31.9
2018-09-20T17:26:33.186Z,31.8
2018-09-20T17:27:22.673Z,31.8
2018-09-20T17:28:12.485Z,31.8
2018-09-20T17:29:03.375Z,31.8
2018-09-20T17:29:53.435Z,31.8
2018-09-20T17:30:42.930Z,31.8